createdAt,value
2019-04-27T00:01:49.663Z,9.68
2019-04-27T00:04:36.045Z,9.75
2019-04-27T00:10:03.472Z,9.81
2019-04-27T00:12:33.104Z,9.88
2019-04-27T00:15:03.341Z,9.88
2019-04-27T00:17:49.845Z,9.93
2019-04-27T00:20:36.244Z,9.97
2019-04-27T00:23:23.632Z,9.97
2019-04-27T00:28:39.919Z,9.96
2019-04-27T00:31:26.322Z,9.98
2019-04-27T00:33:54.081Z,9.99
2019-04-27T00:39:35.215Z,9.92
2019-04-27T00:45:05.231Z,9.94
2019-04-27T00:47:34.893Z,9.94
2019-04-27T00:50:20.820Z,9.97
2019-04-27T00:52:50.628Z,9.98
2019-04-27T00:55:37.350Z,9.93
2019-04-27T00:58:23.738Z,9.92
2019-04-27T01:01:10.437Z,9.91
2019-04-27T01:03:56.876Z,9.89
2019-04-27T01:11:47.165Z,9.86
2019-04-27T01:14:34.284Z,9.86
2019-04-27T01:17:02.866Z,9.85
2019-04-27T01:19:30.751Z,9.86
2019-04-27T01:22:18.782Z,9.84
2019-04-27T01:24:46.445Z,9.84
2019-04-27T01:27:33.148Z,9.86
2019-04-27T01:30:19.519Z,9.85
2019-04-27T01:33:06.218Z,9.85
2019-04-27T01:35:34.029Z,9.84
2019-04-27T01:38:01.791Z,9.82
2019-04-27T01:40:29.566Z,9.82
2019-04-27T01:43:18.670Z,9.80
2019-04-27T01:45:46.678Z,9.80
2019-04-27T01:48:33.049Z,9.76
2019-04-27T01:51:21.006Z,9.72
2019-04-27T01:53:49.250Z,9.72
2019-04-27T01:56:19.469Z,9.62
2019-04-27T01:58:49.264Z,9.62
2019-04-27T02:01:35.560Z,9.59
2019-04-27T02:04:21.993Z,9.56
2019-04-27T02:09:40.093Z,9.54
2019-04-27T02:12:26.475Z,9.48
2019-04-27T02:14:54.249Z,9.48
2019-04-27T02:17:21.821Z,9.48
2019-04-27T02:20:09.715Z,9.45
2019-04-27T02:22:38.459Z,9.45
2019-04-27T02:25:08.932Z,9.46
2019-04-27T02:30:32.906Z,9.38
2019-04-27T02:33:20.317Z,9.38
2019-04-27T02:38:36.697Z,9.38
2019-04-27T02:41:23.131Z,9.34
2019-04-27T02:44:09.856Z,9.34
2019-04-27T02:46:39.448Z,9.30
2019-04-27T02:49:25.965Z,9.31
2019-04-27T02:55:00.076Z,9.31
2019-04-27T02:57:30.026Z,9.31
2019-04-27T02:59:57.224Z,9.28
2019-04-27T03:02:43.863Z,9.28
2019-04-27T03:05:13.135Z,9.28
2019-04-27T03:08:00.033Z,9.27
2019-04-27T03:13:23.537Z,9.27
2019-04-27T03:19:18.871Z,9.23
2019-04-27T03:22:03.691Z,9.23
2019-04-27T03:25:04.204Z,9.27
2019-04-27T03:33:02.977Z,9.32
2019-04-27T03:35:35.040Z,9.31
2019-04-27T03:38:19.776Z,9.29
2019-04-27T03:40:47.366Z,9.29
2019-04-27T03:43:34.054Z,9.28
2019-04-27T03:46:02.121Z,9.24
2019-04-27T03:48:29.919Z,9.26
2019-04-27T03:51:16.565Z,9.26
2019-04-27T03:54:03.822Z,9.27
2019-04-27T03:56:50.882Z,9.26
2019-04-27T03:59:40.537Z,9.24
2019-04-27T04:02:10.159Z,9.24
2019-04-27T04:04:37.095Z,9.24
2019-04-27T04:09:51.148Z,9.20
2019-04-27T04:12:39.791Z,9.18
2019-04-27T04:18:00.433Z,9.18
2019-04-27T04:20:30.380Z,9.18
2019-04-27T04:23:02.782Z,9.21
2019-04-27T04:25:45.634Z,9.26
2019-04-27T04:28:32.054Z,9.30
2019-04-27T04:31:00.454Z,9.30
2019-04-27T04:33:49.258Z,9.39
2019-04-27T04:36:17.103Z,9.39
2019-04-27T04:39:03.548Z,9.44
2019-04-27T04:41:50.978Z,9.49
2019-04-27T04:47:30.801Z,9.64
2019-04-27T04:50:10.697Z,9.73
2019-04-27T04:52:29.574Z,9.90
2019-04-27T04:55:20.117Z,10.01
2019-04-27T04:57:49.109Z,10.01
2019-04-27T05:00:34.720Z,10.24
2019-04-27T05:03:02.470Z,10.39
2019-04-27T05:05:50.100Z,10.39
2019-04-27T05:08:36.918Z,10.67
2019-04-27T05:11:23.374Z,10.67
2019-04-27T05:13:51.084Z,10.81
2019-04-27T05:16:39.067Z,11.08
2019-04-27T05:22:12.630Z,11.36
2019-04-27T05:24:59.311Z,11.53
2019-04-27T05:30:19.660Z,11.80
2019-04-27T05:32:49.548Z,11.80
2019-04-27T05:35:19.330Z,11.91
2019-04-27T05:37:49.079Z,12.05
2019-04-27T05:40:35.245Z,12.36
2019-04-27T05:45:57.722Z,12.56
2019-04-27T05:48:27.754Z,12.60
2019-04-27T05:51:14.212Z,12.62
2019-04-27T05:53:46.298Z,12.64
2019-04-27T05:56:13.943Z,12.64
2019-04-27T05:58:41.640Z,12.64
2019-04-27T06:01:11.348Z,12.67
2019-04-27T06:03:58.861Z,12.75
2019-04-27T06:06:26.764Z,12.81
2019-04-27T06:09:13.223Z,12.80
2019-04-27T06:11:40.824Z,12.80
2019-04-27T06:14:29.060Z,12.80
2019-04-27T06:17:15.281Z,12.78
2019-04-27T06:20:01.739Z,12.78
2019-04-27T06:22:29.538Z,12.79
2019-04-27T06:25:21.158Z,12.81
2019-04-27T06:30:53.998Z,12.91
2019-04-27T06:33:29.582Z,12.93
2019-04-27T06:36:10.044Z,12.89
2019-04-27T06:38:39.384Z,12.89
2019-04-27T06:41:25.886Z,12.87
2019-04-27T06:43:53.473Z,12.80
2019-04-27T06:46:40.526Z,12.78
2019-04-27T06:52:02.345Z,12.76
2019-04-27T06:57:21.560Z,12.70
2019-04-27T06:59:50.696Z,12.68
2019-04-27T07:02:49.404Z,12.68
2019-04-27T07:07:59.241Z,12.67
2019-04-27T07:13:19.574Z,12.68
2019-04-27T07:16:06.042Z,12.67
2019-04-27T07:18:52.437Z,12.67
2019-04-27T07:21:24.739Z,12.65
2019-04-27T07:24:08.974Z,12.68
2019-04-27T07:26:36.688Z,12.68
2019-04-27T07:29:04.627Z,12.66
2019-04-27T07:31:46.182Z,12.59
2019-04-27T07:34:01.749Z,12.48
2019-04-27T07:36:36.691Z,12.31
2019-04-27T07:39:05.066Z,12.19
2019-04-27T07:41:32.937Z,12.05
2019-04-27T07:44:15.122Z,11.94
2019-04-27T07:46:42.782Z,11.87
2019-04-27T07:49:10.768Z,11.67
2019-04-27T07:51:39.339Z,11.62
2019-04-27T07:54:08.766Z,11.62
2019-04-27T07:56:39.322Z,11.60
2019-04-27T07:59:06.912Z,11.59
2019-04-27T08:01:34.577Z,11.56
2019-04-27T08:04:02.433Z,11.53
2019-04-27T08:06:33.119Z,11.49
2019-04-27T08:09:00.844Z,11.46
2019-04-27T08:11:29.163Z,11.42
2019-04-27T08:13:59.279Z,11.37
2019-04-27T08:16:32.838Z,11.35
2019-04-27T08:19:03.439Z,11.36
2019-04-27T08:21:43.380Z,11.35
2019-04-27T08:24:06.285Z,11.34
2019-04-27T08:26:43.392Z,11.34
2019-04-27T08:29:29.635Z,11.30
2019-04-27T08:32:04.139Z,11.30
2019-04-27T08:34:35.589Z,11.29
2019-04-27T08:37:06.034Z,11.27
2019-04-27T08:39:33.632Z,11.26
2019-04-27T08:42:01.329Z,11.26
2019-04-27T08:44:32.005Z,11.26
2019-04-27T08:46:59.719Z,11.27
2019-04-27T08:49:29.259Z,11.37
2019-04-27T08:52:01.349Z,11.37
2019-04-27T08:54:26.554Z,11.50
2019-04-27T08:56:56.930Z,11.66
2019-04-27T08:59:29.551Z,11.66
2019-04-27T09:01:58.724Z,11.70
2019-04-27T09:04:28.799Z,11.76
2019-04-27T09:07:03.827Z,11.74
2019-04-27T09:09:42.616Z,11.73
2019-04-27T09:12:29.399Z,11.72
2019-04-27T09:15:02.014Z,11.78
2019-04-27T09:17:36.175Z,11.78
2019-04-27T09:20:22.906Z,11.79
2019-04-27T09:22:50.643Z,11.83
2019-04-27T09:25:19.303Z,11.88
2019-04-27T09:27:47.083Z,11.88
2019-04-27T09:30:14.787Z,11.89
2019-04-27T09:32:42.658Z,11.89
2019-04-27T09:35:10.254Z,11.90
2019-04-27T09:37:38.215Z,11.92
2019-04-27T09:40:06.337Z,11.98
2019-04-27T09:42:38.155Z,11.98
2019-04-27T09:45:06.552Z,12.04
2019-04-27T09:47:39.049Z,12.08
2019-04-27T09:50:06.202Z,12.13
2019-04-27T09:52:45.921Z,12.23
2019-04-27T09:55:13.581Z,12.29
2019-04-27T09:57:41.195Z,12.31
2019-04-27T10:00:11.159Z,12.35
2019-04-27T10:02:39.053Z,12.34
2019-04-27T10:05:07.047Z,12.30
2019-04-27T10:07:35.842Z,12.27
2019-04-27T10:10:06.428Z,12.29
2019-04-27T10:12:37.291Z,12.26
2019-04-27T10:15:07.631Z,12.24
2019-04-27T10:17:35.457Z,12.21
2019-04-27T10:20:03.160Z,12.21
2019-04-27T10:22:41.033Z,12.16
2019-04-27T10:25:03.174Z,12.16
2019-04-27T10:27:30.844Z,12.17
2019-04-27T10:29:58.642Z,12.16
2019-04-27T10:32:26.515Z,12.22
2019-04-27T10:34:54.265Z,12.22
2019-04-27T10:37:21.914Z,12.54
2019-04-27T10:39:49.661Z,12.54
2019-04-27T10:42:17.338Z,12.74
2019-04-27T10:44:46.165Z,12.85
2019-04-27T10:47:15.691Z,12.86
2019-04-27T10:49:43.227Z,12.86
2019-04-27T10:52:11.071Z,12.83
2019-04-27T10:54:42.556Z,12.90
2019-04-27T10:57:16.188Z,12.96
2019-04-27T10:59:40.777Z,13.06
2019-04-27T11:02:08.313Z,13.10
2019-04-27T11:05:00.848Z,13.09
2019-04-27T11:07:33.180Z,13.01
2019-04-27T11:10:00.839Z,12.87
2019-04-27T11:12:28.463Z,11.98
2019-04-27T11:14:56.474Z,11.48
2019-04-27T11:17:24.194Z,11.48
2019-04-27T11:19:51.866Z,11.10
2019-04-27T11:22:19.690Z,10.82
2019-04-27T11:24:48.982Z,10.66
2019-04-27T11:27:16.534Z,10.72
2019-04-27T11:29:51.087Z,10.72
2019-04-27T11:32:18.784Z,10.73
2019-04-27T11:35:17.378Z,10.78
2019-04-27T11:37:45.621Z,10.78
2019-04-27T11:40:13.292Z,10.89
2019-04-27T11:42:40.983Z,10.96
2019-04-27T11:45:08.996Z,10.92
2019-04-27T11:47:36.939Z,10.92
2019-04-27T11:50:08.188Z,11.04
2019-04-27T11:52:36.032Z,11.04
2019-04-27T11:55:05.719Z,11.35
2019-04-27T11:57:33.416Z,11.95
2019-04-27T12:00:01.051Z,11.99
2019-04-27T12:02:28.982Z,11.99
2019-04-27T12:04:56.631Z,11.94
2019-04-27T12:07:24.173Z,11.81
2019-04-27T12:09:51.813Z,11.78
2019-04-27T12:12:21.700Z,11.89
2019-04-27T12:14:48.902Z,11.90
2019-04-27T12:17:16.588Z,11.86
2019-04-27T12:19:44.211Z,11.86
2019-04-27T12:22:16.906Z,11.81
2019-04-27T12:24:45.739Z,11.74
2019-04-27T12:27:38.202Z,11.61
2019-04-27T12:30:40.153Z,11.53
2019-04-27T12:33:12.235Z,11.02
2019-04-27T12:35:56.891Z,11.02
2019-04-27T12:38:17.111Z,10.82
2019-04-27T12:40:46.484Z,10.68
2019-04-27T12:43:14.220Z,10.55
2019-04-27T12:45:43.614Z,10.38
2019-04-27T12:48:11.105Z,10.21
2019-04-27T12:50:38.994Z,9.80
2019-04-27T12:53:09.107Z,9.60
2019-04-27T12:55:47.396Z,9.43
2019-04-27T12:58:23.163Z,9.43
2019-04-27T13:00:53.594Z,9.23
2019-04-27T13:03:21.046Z,9.09
2019-04-27T13:05:50.084Z,9.09
2019-04-27T13:08:19.879Z,9.00
2019-04-27T13:10:47.119Z,8.99
2019-04-27T13:13:17.705Z,8.99
2019-04-27T13:15:45.892Z,9.10
2019-04-27T13:18:16.724Z,9.29
2019-04-27T13:20:44.632Z,9.29
2019-04-27T13:23:15.073Z,9.37
2019-04-27T13:25:42.789Z,9.44
2019-04-27T13:28:12.956Z,9.60
2019-04-27T13:30:40.672Z,9.60
2019-04-27T13:33:08.211Z,9.64
2019-04-27T13:35:36.128Z,9.64
2019-04-27T13:38:06.146Z,9.65
2019-04-27T13:40:35.801Z,9.68
2019-04-27T13:43:27.842Z,9.73
2019-04-27T13:46:08.152Z,9.78
2019-04-27T13:48:56.206Z,9.93
2019-04-27T13:51:41.244Z,10.34
2019-04-27T13:54:18.682Z,10.34
2019-04-27T13:56:38.510Z,11.36
2019-04-27T13:59:10.751Z,11.88
2019-04-27T14:01:38.482Z,12.14
2019-04-27T14:04:07.368Z,12.38
2019-04-27T14:06:36.419Z,12.75
2019-04-27T14:09:05.498Z,13.28
2019-04-27T14:11:33.172Z,13.28
2019-04-27T14:14:01.091Z,13.29
2019-04-27T14:16:29.132Z,13.20
2019-04-27T14:18:56.836Z,13.19
2019-04-27T14:21:24.448Z,13.22
2019-04-27T14:23:53.465Z,12.93
2019-04-27T14:26:21.046Z,12.99
2019-04-27T14:28:49.966Z,12.99
2019-04-27T14:31:18.902Z,13.03
2019-04-27T14:33:48.248Z,13.08
2019-04-27T14:36:15.821Z,13.15
2019-04-27T14:38:43.763Z,13.09
2019-04-27T14:41:11.738Z,12.99
2019-04-27T14:43:39.316Z,13.15
2019-04-27T14:46:08.133Z,13.97
2019-04-27T14:48:35.792Z,14.76
2019-04-27T14:51:04.481Z,15.35
2019-04-27T14:53:32.393Z,15.86
2019-04-27T14:56:02.737Z,16.10
2019-04-27T14:59:05.721Z,16.51
2019-04-27T15:01:08.211Z,16.98
2019-04-27T15:03:36.869Z,17.53
2019-04-27T15:06:08.921Z,18.25
2019-04-27T15:08:38.291Z,18.90
2019-04-27T15:11:17.335Z,19.17
2019-04-27T15:13:43.114Z,18.19
2019-04-27T15:16:09.028Z,16.19
2019-04-27T15:18:43.602Z,15.50
2019-04-27T15:21:12.407Z,15.50
2019-04-27T15:23:41.398Z,14.88
2019-04-27T15:26:15.402Z,14.37
2019-04-27T15:28:44.804Z,13.80
2019-04-27T15:31:31.669Z,13.44
2019-04-27T15:34:35.586Z,13.98
2019-04-27T15:37:28.159Z,14.63
2019-04-27T15:40:20.046Z,14.65
2019-04-27T15:42:59.506Z,15.37
2019-04-27T15:45:28.616Z,15.78
2019-04-27T15:48:03.542Z,16.40
2019-04-27T15:50:32.331Z,17.52
2019-04-27T15:53:06.948Z,17.52
2019-04-27T15:55:36.921Z,18.07
2019-04-27T15:58:02.599Z,19.51
2019-04-27T16:00:38.279Z,19.51
2019-04-27T16:03:05.832Z,20.11
2019-04-27T16:05:35.994Z,20.76
2019-04-27T16:08:14.867Z,21.18
2019-04-27T16:10:40.951Z,21.57
2019-04-27T16:13:15.119Z,21.40
2019-04-27T16:15:40.334Z,20.87
2019-04-27T16:18:12.555Z,20.34
2019-04-27T16:20:41.577Z,19.31
2019-04-27T16:23:19.150Z,18.08
2019-04-27T16:26:04.995Z,17.05
2019-04-27T16:28:28.224Z,16.04
2019-04-27T16:31:05.289Z,15.02
2019-04-27T16:33:33.228Z,14.29
2019-04-27T16:36:07.106Z,13.52
2019-04-27T16:38:36.187Z,12.80
2019-04-27T16:41:08.062Z,12.23
2019-04-27T16:43:36.183Z,11.79
2019-04-27T16:46:04.661Z,11.46
2019-04-27T16:48:34.556Z,11.26
2019-04-27T16:51:02.504Z,11.08
2019-04-27T16:53:48.929Z,10.97
2019-04-27T16:56:20.854Z,10.83
2019-04-27T16:58:56.278Z,10.70
2019-04-27T17:01:40.071Z,10.62
2019-04-27T17:07:00.213Z,10.53
2019-04-27T17:09:50.549Z,10.47
2019-04-27T17:15:21.133Z,10.35
2019-04-27T17:18:09.305Z,10.26
2019-04-27T17:20:38.295Z,10.13
2019-04-27T17:23:06.457Z,10.02
2019-04-27T17:25:39.684Z,9.90
2019-04-27T17:28:08.755Z,9.90
2019-04-27T17:30:41.536Z,9.90
2019-04-27T17:33:22.190Z,9.95
2019-04-27T17:35:49.865Z,9.95
2019-04-27T17:38:36.276Z,9.95
2019-04-27T17:44:12.788Z,9.93
2019-04-27T17:46:42.746Z,9.93
2019-04-27T17:49:28.783Z,9.91
2019-04-27T17:57:26.175Z,9.87
2019-04-27T18:00:10.361Z,9.79
2019-04-27T18:02:42.257Z,9.74
2019-04-27T18:08:08.288Z,9.70
2019-04-27T18:13:42.163Z,9.64
2019-04-27T18:22:37.416Z,9.53
2019-04-27T18:25:10.471Z,9.52
2019-04-27T18:28:14.736Z,9.51
2019-04-27T18:30:45.354Z,9.51
2019-04-27T18:36:11.700Z,9.51
2019-04-27T18:41:49.245Z,9.54
2019-04-27T18:44:11.624Z,9.55
2019-04-27T18:47:02.346Z,9.55
2019-04-27T18:50:10.153Z,9.55
2019-04-27T18:52:47.771Z,9.51
2019-04-27T18:55:16.794Z,9.51
2019-04-27T18:57:45.951Z,9.33
2019-04-27T19:00:15.546Z,9.18
2019-04-27T19:02:43.156Z,9.18
2019-04-27T19:05:10.736Z,9.01
2019-04-27T19:07:58.271Z,8.90
2019-04-27T19:16:22.378Z,8.71
2019-04-27T19:18:50.249Z,8.69
2019-04-27T19:21:19.946Z,8.67
2019-04-27T19:23:50.240Z,8.67
2019-04-27T19:26:38.143Z,8.63
2019-04-27T19:32:14.170Z,8.56
2019-04-27T19:35:00.531Z,8.53
2019-04-27T19:37:48.559Z,8.53
2019-04-27T19:43:40.175Z,8.53
2019-04-27T19:46:10.289Z,8.54
2019-04-27T19:48:56.432Z,8.55
2019-04-27T19:51:25.783Z,8.50
2019-04-27T19:54:12.238Z,8.50
2019-04-27T19:56:39.947Z,8.45
2019-04-27T19:59:28.059Z,8.30
2019-04-27T20:02:14.443Z,8.21
2019-04-27T20:05:01.090Z,8.11
2019-04-27T20:07:48.249Z,8.02
2019-04-27T20:10:37.815Z,8.02
2019-04-27T20:16:12.291Z,7.93
2019-04-27T20:21:31.852Z,7.91
2019-04-27T20:23:59.539Z,7.93
2019-04-27T20:26:47.561Z,7.99
2019-04-27T20:29:15.186Z,7.99
2019-04-27T20:31:42.822Z,8.02
2019-04-27T20:34:30.961Z,8.02
2019-04-27T20:36:58.618Z,8.03
2019-04-27T20:42:31.709Z,8.01
2019-04-27T20:47:52.729Z,8.05
2019-04-27T20:50:41.230Z,8.05
2019-04-27T20:56:19.091Z,8.10
2019-04-27T20:58:46.744Z,8.10
2019-04-27T21:01:34.255Z,8.10
2019-04-27T21:07:08.677Z,8.14
2019-04-27T21:09:55.077Z,8.18
2019-04-27T21:12:41.748Z,8.20
2019-04-27T21:15:11.275Z,8.23
2019-04-27T21:17:57.566Z,8.26
2019-04-27T21:20:43.957Z,8.26
2019-04-27T21:23:31.210Z,8.29
2019-04-27T21:28:54.320Z,8.30
2019-04-27T21:31:42.634Z,8.30
2019-04-27T21:34:41.457Z,8.30
2019-04-27T21:36:58.464Z,8.31
2019-04-27T21:40:02.036Z,8.31
2019-04-27T21:42:32.951Z,8.30
2019-04-27T21:45:21.585Z,8.30
2019-04-27T21:48:07.365Z,8.29
2019-04-27T21:50:53.776Z,8.29
2019-04-27T21:53:41.170Z,8.32
2019-04-27T21:56:13.414Z,8.33
2019-04-27T21:58:42.054Z,8.33
2019-04-27T22:01:29.141Z,8.33
2019-04-27T22:03:56.995Z,8.34
2019-04-27T22:09:17.394Z,8.35
2019-04-27T22:11:45.163Z,8.35
2019-04-27T22:14:31.597Z,8.36
2019-04-27T22:20:06.074Z,8.38
2019-04-27T22:25:31.771Z,8.38
2019-04-27T22:28:18.193Z,8.39
2019-04-27T22:31:04.569Z,8.39
2019-04-27T22:33:54.396Z,8.41
2019-04-27T22:36:39.587Z,8.41
2019-04-27T22:39:26.029Z,8.39
2019-04-27T22:45:06.756Z,8.39
2019-04-27T22:47:53.157Z,8.39
2019-04-27T22:53:20.359Z,8.39
2019-04-27T22:56:06.824Z,8.37
2019-04-27T22:59:00.510Z,8.36
2019-04-27T23:04:25.304Z,8.35
2019-04-27T23:09:44.396Z,8.35
2019-04-27T23:15:19.217Z,8.35
2019-04-27T23:21:03.676Z,8.35
2019-04-27T23:23:31.334Z,8.35
2019-04-27T23:26:18.156Z,8.35
2019-04-27T23:28:46.826Z,8.34
2019-04-27T23:31:33.586Z,8.34
2019-04-27T23:36:37.149Z,8.33
2019-04-27T23:44:58.081Z,8.34
2019-04-27T23:47:44.509Z,8.36
2019-04-27T23:50:12.244Z,8.36
2019-04-27T23:52:58.658Z,8.36
2019-04-27T23:58:21.546Z,8.35
